sensor_id;sensor_type;location;lat;lon;timestamp;temperature;humidity
6948;DHT22;3513;47.664;9.162;2022-12-29T00:01:30;4.50;99.90
6948;DHT22;3513;47.664;9.162;2022-12-29T00:03:56;4.50;99.90
6948;DHT22;3513;47.664;9.162;2022-12-29T00:06:21;4.50;99.90
6948;DHT22;3513;47.664;9.162;2022-12-29T00:08:47;4.60;99.90
6948;DHT22;3513;47.664;9.162;2022-12-29T00:11:15;4.60;99.90
6948;DHT22;3513;47.664;9.162;2022-12-29T00:13:41;4.70;99.90
6948;DHT22;3513;47.664;9.162;2022-12-29T00:16:26;4.70;99.90
6948;DHT22;3513;47.664;9.162;2022-12-29T00:18:52;4.80;99.90
6948;DHT22;3513;47.664;9.162;2022-12-29T00:21:20;4.80;99.90
6948;DHT22;3513;47.664;9.162;2022-12-29T00:24:05;4.90;99.90
6948;DHT22;3513;47.664;9.162;2022-12-29T00:26:40;4.80;99.90
6948;DHT22;3513;47.664;9.162;2022-12-29T00:29:24;4.90;99.90
6948;DHT22;3513;47.664;9.162;2022-12-29T00:32:10;4.80;99.90
6948;DHT22;3513;47.664;9.162;2022-12-29T00:34:54;4.80;99.90
6948;DHT22;3513;47.664;9.162;2022-12-29T00:37:40;4.80;99.90
6948;DHT22;3513;47.664;9.162;2022-12-29T00:40:25;4.70;99.90
6948;DHT22;3513;47.664;9.162;2022-12-29T00:43:09;4.70;99.90
6948;DHT22;3513;47.664;9.162;2022-12-29T00:45:53;4.60;99.90
6948;DHT22;3513;47.664;9.162;2022-12-29T00:48:19;4.60;99.90
6948;DHT22;3513;47.664;9.162;2022-12-29T00:51:05;4.70;99.90
6948;DHT22;3513;47.664;9.162;2022-12-29T00:53:31;4.60;99.90
6948;DHT22;3513;47.664;9.162;2022-12-29T00:55:57;4.70;99.90
6948;DHT22;3513;47.664;9.162;2022-12-29T00:58:22;4.70;99.90
6948;DHT22;3513;47.664;9.162;2022-12-29T01:00:48;5.00;99.90
6948;DHT22;3513;47.664;9.162;2022-12-29T01:03:13;4.80;99.90
6948;DHT22;3513;47.664;9.162;2022-12-29T01:05:39;4.90;99.90
6948;DHT22;3513;47.664;9.162;2022-12-29T01:08:04;4.90;99.90
6948;DHT22;3513;47.664;9.162;2022-12-29T01:10:30;4.90;99.90
6948;DHT22;3513;47.664;9.162;2022-12-29T01:12:56;5.00;99.90
6948;DHT22;3513;47.664;9.162;2022-12-29T01:15:21;5.00;99.90
6948;DHT22;3513;47.664;9.162;2022-12-29T01:17:47;5.10;99.90
6948;DHT22;3513;47.664;9.162;2022-12-29T01:20:13;5.10;99.90
6948;DHT22;3513;47.664;9.162;2022-12-29T01:22:39;5.20;99.90
6948;DHT22;3513;47.664;9.162;2022-12-29T01:25:05;5.20;99.90
6948;DHT22;3513;47.664;9.162;2022-12-29T01:27:31;5.20;99.90
6948;DHT22;3513;47.664;9.162;2022-12-29T01:29:57;5.20;99.90
6948;DHT22;3513;47.664;9.162;2022-12-29T01:32:22;5.20;99.90
6948;DHT22;3513;47.664;9.162;2022-12-29T01:34:48;5.10;99.90
6948;DHT22;3513;47.664;9.162;2022-12-29T01:37:14;5.10;99.90
6948;DHT22;3513;47.664;9.162;2022-12-29T01:39:39;5.10;99.90
6948;DHT22;3513;47.664;9.162;2022-12-29T01:42:05;5.10;99.90
6948;DHT22;3513;47.664;9.162;2022-12-29T01:47:08;7.00;99.90
6948;DHT22;3513;47.664;9.162;2022-12-29T01:49:34;5.60;96.10
6948;DHT22;3513;47.664;9.162;2022-12-29T01:52:04;6.00;93.60
6948;DHT22;3513;47.664;9.162;2022-12-29T01:54:35;6.70;90.40
6948;DHT22;3513;47.664;9.162;2022-12-29T01:57:04;7.30;86.80
6948;DHT22;3513;47.664;9.162;2022-12-29T01:59:34;7.90;82.00
6948;DHT22;3513;47.664;9.162;2022-12-29T02:02:02;8.30;79.90
6948;DHT22;3513;47.664;9.162;2022-12-29T02:04:31;8.50;76.70
6948;DHT22;3513;47.664;9.162;2022-12-29T02:07:03;8.70;75.10
6948;DHT22;3513;47.664;9.162;2022-12-29T02:09:30;8.80;74.50
6948;DHT22;3513;47.664;9.162;2022-12-29T02:11:58;9.30;74.90
6948;DHT22;3513;47.664;9.162;2022-12-29T02:14:24;8.90;74.60
6948;DHT22;3513;47.664;9.162;2022-12-29T02:20:07;9.00;75.10
6948;DHT22;3513;47.664;9.162;2022-12-29T02:22:47;9.00;76.10
6948;DHT22;3513;47.664;9.162;2022-12-29T02:25:42;9.00;74.80
6948;DHT22;3513;47.664;9.162;2022-12-29T02:36:45;9.10;76.00
6948;DHT22;3513;47.664;9.162;2022-12-29T02:44:43;9.00;77.00
6948;DHT22;3513;47.664;9.162;2022-12-29T02:47:56;9.00;76.80
6948;DHT22;3513;47.664;9.162;2022-12-29T02:50:15;9.10;77.40
6948;DHT22;3513;47.664;9.162;2022-12-29T02:52:54;9.10;77.40
6948;DHT22;3513;47.664;9.162;2022-12-29T02:55:22;9.10;77.50
6948;DHT22;3513;47.664;9.162;2022-12-29T02:57:48;9.10;79.00
6948;DHT22;3513;47.664;9.162;2022-12-29T03:00:16;9.20;79.50
6948;DHT22;3513;47.664;9.162;2022-12-29T03:10:50;8.50;80.80
6948;DHT22;3513;47.664;9.162;2022-12-29T03:13:24;9.50;81.40
6948;DHT22;3513;47.664;9.162;2022-12-29T03:16:28;9.50;82.10
6948;DHT22;3513;47.664;9.162;2022-12-29T03:19:19;9.50;82.10
6948;DHT22;3513;47.664;9.162;2022-12-29T03:21:53;9.50;83.10
6948;DHT22;3513;47.664;9.162;2022-12-29T03:24:47;9.50;82.60
6948;DHT22;3513;47.664;9.162;2022-12-29T03:27:17;9.50;83.50
6948;DHT22;3513;47.664;9.162;2022-12-29T03:29:50;9.50;83.30
6948;DHT22;3513;47.664;9.162;2022-12-29T03:32:22;9.50;83.40
6948;DHT22;3513;47.664;9.162;2022-12-29T03:34:50;9.50;83.70
6948;DHT22;3513;47.664;9.162;2022-12-29T03:37:20;9.40;83.30
6948;DHT22;3513;47.664;9.162;2022-12-29T03:39:46;9.40;83.30
6948;DHT22;3513;47.664;9.162;2022-12-29T03:42:19;9.30;83.30
6948;DHT22;3513;47.664;9.162;2022-12-29T03:44:45;9.30;82.70
6948;DHT22;3513;47.664;9.162;2022-12-29T03:47:12;9.30;82.00
6948;DHT22;3513;47.664;9.162;2022-12-29T03:49:38;9.30;82.10
6948;DHT22;3513;47.664;9.162;2022-12-29T03:52:04;9.30;81.80
6948;DHT22;3513;47.664;9.162;2022-12-29T03:54:31;9.30;81.90
6948;DHT22;3513;47.664;9.162;2022-12-29T03:56:57;9.20;81.90
6948;DHT22;3513;47.664;9.162;2022-12-29T03:59:23;9.20;81.50
6948;DHT22;3513;47.664;9.162;2022-12-29T04:01:48;9.10;81.00
6948;DHT22;3513;47.664;9.162;2022-12-29T04:04:14;9.10;81.30
6948;DHT22;3513;47.664;9.162;2022-12-29T04:06:39;9.10;81.30
6948;DHT22;3513;47.664;9.162;2022-12-29T04:09:06;9.10;81.00
6948;DHT22;3513;47.664;9.162;2022-12-29T04:11:31;9.10;81.30
6948;DHT22;3513;47.664;9.162;2022-12-29T04:13:57;9.10;81.30
6948;DHT22;3513;47.664;9.162;2022-12-29T04:16:22;9.20;82.20
6948;DHT22;3513;47.664;9.162;2022-12-29T04:18:48;9.10;82.10
6948;DHT22;3513;47.664;9.162;2022-12-29T04:21:14;9.00;82.30
6948;DHT22;3513;47.664;9.162;2022-12-29T04:23:39;9.00;82.70
6948;DHT22;3513;47.664;9.162;2022-12-29T04:26:06;9.00;82.70
6948;DHT22;3513;47.664;9.162;2022-12-29T04:28:32;9.00;82.30
6948;DHT22;3513;47.664;9.162;2022-12-29T04:30:58;9.00;82.00
6948;DHT22;3513;47.664;9.162;2022-12-29T04:33:24;9.00;81.60
6948;DHT22;3513;47.664;9.162;2022-12-29T04:35:50;8.90;80.60
6948;DHT22;3513;47.664;9.162;2022-12-29T04:38:16;8.80;79.40
6948;DHT22;3513;47.664;9.162;2022-12-29T04:40:42;8.90;78.40
6948;DHT22;3513;47.664;9.162;2022-12-29T04:43:08;8.80;78.60
6948;DHT22;3513;47.664;9.162;2022-12-29T04:45:35;8.80;78.60
6948;DHT22;3513;47.664;9.162;2022-12-29T04:48:01;8.80;78.80
6948;DHT22;3513;47.664;9.162;2022-12-29T04:50:26;8.70;78.60
6948;DHT22;3513;47.664;9.162;2022-12-29T04:52:52;8.70;78.00
6948;DHT22;3513;47.664;9.162;2022-12-29T04:55:18;8.60;78.30
6948;DHT22;3513;47.664;9.162;2022-12-29T04:57:43;8.60;78.10
6948;DHT22;3513;47.664;9.162;2022-12-29T05:00:09;8.70;78.30
6948;DHT22;3513;47.664;9.162;2022-12-29T05:02:37;8.70;77.90
6948;DHT22;3513;47.664;9.162;2022-12-29T05:05:03;8.70;78.00
6948;DHT22;3513;47.664;9.162;2022-12-29T05:07:28;8.60;78.20
6948;DHT22;3513;47.664;9.162;2022-12-29T05:09:54;8.60;77.90
6948;DHT22;3513;47.664;9.162;2022-12-29T05:12:20;8.50;78.00
6948;DHT22;3513;47.664;9.162;2022-12-29T05:14:45;8.40;78.40
6948;DHT22;3513;47.664;9.162;2022-12-29T05:17:11;8.20;78.50
6948;DHT22;3513;47.664;9.162;2022-12-29T05:19:36;8.10;79.10
6948;DHT22;3513;47.664;9.162;2022-12-29T05:22:03;8.70;79.20
6948;DHT22;3513;47.664;9.162;2022-12-29T05:24:29;8.10;78.50
6948;DHT22;3513;47.664;9.162;2022-12-29T05:26:54;8.00;78.60
6948;DHT22;3513;47.664;9.162;2022-12-29T05:29:20;7.90;79.10
6948;DHT22;3513;47.664;9.162;2022-12-29T05:31:45;7.80;79.60
6948;DHT22;3513;47.664;9.162;2022-12-29T05:34:11;7.70;79.00
6948;DHT22;3513;47.664;9.162;2022-12-29T05:36:37;7.70;78.70
6948;DHT22;3513;47.664;9.162;2022-12-29T05:39:03;7.60;79.00
6948;DHT22;3513;47.664;9.162;2022-12-29T05:41:29;7.70;78.70
6948;DHT22;3513;47.664;9.162;2022-12-29T05:43:54;7.70;78.20
6948;DHT22;3513;47.664;9.162;2022-12-29T05:46:20;7.70;78.30
6948;DHT22;3513;47.664;9.162;2022-12-29T05:48:46;7.60;79.20
6948;DHT22;3513;47.664;9.162;2022-12-29T05:51:11;7.50;79.50
6948;DHT22;3513;47.664;9.162;2022-12-29T05:53:37;7.40;80.00
6948;DHT22;3513;47.664;9.162;2022-12-29T05:56:03;7.40;80.30
6948;DHT22;3513;47.664;9.162;2022-12-29T05:58:28;7.30;80.60
6948;DHT22;3513;47.664;9.162;2022-12-29T06:00:54;7.30;81.00
6948;DHT22;3513;47.664;9.162;2022-12-29T06:03:19;7.30;81.30
6948;DHT22;3513;47.664;9.162;2022-12-29T06:05:46;7.40;81.50
6948;DHT22;3513;47.664;9.162;2022-12-29T06:08:12;7.40;81.40
6948;DHT22;3513;47.664;9.162;2022-12-29T06:10:37;7.50;81.40
6948;DHT22;3513;47.664;9.162;2022-12-29T06:13:03;7.50;81.50
6948;DHT22;3513;47.664;9.162;2022-12-29T06:15:31;7.50;81.60
6948;DHT22;3513;47.664;9.162;2022-12-29T06:17:57;7.60;82.00
6948;DHT22;3513;47.664;9.162;2022-12-29T06:20:22;7.60;82.40
6948;DHT22;3513;47.664;9.162;2022-12-29T06:22:48;7.60;82.40
6948;DHT22;3513;47.664;9.162;2022-12-29T06:25:15;7.50;83.00
6948;DHT22;3513;47.664;9.162;2022-12-29T06:27:41;7.50;83.50
6948;DHT22;3513;47.664;9.162;2022-12-29T06:30:07;7.60;84.40
6948;DHT22;3513;47.664;9.162;2022-12-29T06:32:32;7.70;83.90
6948;DHT22;3513;47.664;9.162;2022-12-29T06:34:58;7.80;84.10
6948;DHT22;3513;47.664;9.162;2022-12-29T06:37:24;7.90;84.20
6948;DHT22;3513;47.664;9.162;2022-12-29T06:39:50;8.20;84.10
6948;DHT22;3513;47.664;9.162;2022-12-29T06:42:15;8.40;83.10
6948;DHT22;3513;47.664;9.162;2022-12-29T06:44:41;8.60;83.10
6948;DHT22;3513;47.664;9.162;2022-12-29T06:47:07;8.80;82.80
6948;DHT22;3513;47.664;9.162;2022-12-29T06:49:32;9.00;82.20
6948;DHT22;3513;47.664;9.162;2022-12-29T06:51:58;9.20;82.00
6948;DHT22;3513;47.664;9.162;2022-12-29T06:54:26;9.30;82.10
6948;DHT22;3513;47.664;9.162;2022-12-29T06:56:51;9.40;81.70
6948;DHT22;3513;47.664;9.162;2022-12-29T06:59:17;9.90;81.80
6948;DHT22;3513;47.664;9.162;2022-12-29T07:01:42;9.60;81.70
6948;DHT22;3513;47.664;9.162;2022-12-29T07:04:08;10.00;80.80
6948;DHT22;3513;47.664;9.162;2022-12-29T07:06:33;9.70;81.90
6948;DHT22;3513;47.664;9.162;2022-12-29T07:08:59;9.70;81.90
6948;DHT22;3513;47.664;9.162;2022-12-29T07:11:25;9.80;82.10
6948;DHT22;3513;47.664;9.162;2022-12-29T07:13:51;9.90;81.70
6948;DHT22;3513;47.664;9.162;2022-12-29T07:16:16;10.00;80.40
6948;DHT22;3513;47.664;9.162;2022-12-29T07:18:42;9.90;81.80
6948;DHT22;3513;47.664;9.162;2022-12-29T07:21:08;9.90;82.30
6948;DHT22;3513;47.664;9.162;2022-12-29T07:23:34;10.00;81.20
6948;DHT22;3513;47.664;9.162;2022-12-29T07:26:04;10.10;81.30
6948;DHT22;3513;47.664;9.162;2022-12-29T07:28:30;10.00;81.90
6948;DHT22;3513;47.664;9.162;2022-12-29T07:30:58;10.00;82.10
6948;DHT22;3513;47.664;9.162;2022-12-29T07:33:24;9.90;83.50
6948;DHT22;3513;47.664;9.162;2022-12-29T07:35:49;9.90;83.30
6948;DHT22;3513;47.664;9.162;2022-12-29T07:38:15;10.00;82.30
6948;DHT22;3513;47.664;9.162;2022-12-29T07:40:42;10.00;82.20
6948;DHT22;3513;47.664;9.162;2022-12-29T07:43:08;9.90;83.50
6948;DHT22;3513;47.664;9.162;2022-12-29T07:45:34;9.90;83.20
6948;DHT22;3513;47.664;9.162;2022-12-29T07:47:59;10.00;82.00
6948;DHT22;3513;47.664;9.162;2022-12-29T07:50:25;10.00;82.40
6948;DHT22;3513;47.664;9.162;2022-12-29T07:52:50;10.00;82.50
6948;DHT22;3513;47.664;9.162;2022-12-29T07:55:16;10.00;82.30
6948;DHT22;3513;47.664;9.162;2022-12-29T07:57:42;10.00;82.80
6948;DHT22;3513;47.664;9.162;2022-12-29T08:00:08;10.10;82.90
6948;DHT22;3513;47.664;9.162;2022-12-29T08:02:35;10.00;82.70
6948;DHT22;3513;47.664;9.162;2022-12-29T08:05:01;10.00;83.10
6948;DHT22;3513;47.664;9.162;2022-12-29T08:07:26;9.90;84.30
6948;DHT22;3513;47.664;9.162;2022-12-29T08:09:52;9.90;84.80
6948;DHT22;3513;47.664;9.162;2022-12-29T08:12:17;9.80;84.70
6948;DHT22;3513;47.664;9.162;2022-12-29T08:14:43;9.80;85.30
6948;DHT22;3513;47.664;9.162;2022-12-29T08:17:09;9.70;85.70
6948;DHT22;3513;47.664;9.162;2022-12-29T08:19:35;9.70;85.50
6948;DHT22;3513;47.664;9.162;2022-12-29T08:22:01;9.70;85.60
6948;DHT22;3513;47.664;9.162;2022-12-29T08:24:26;9.70;85.40
6948;DHT22;3513;47.664;9.162;2022-12-29T08:26:52;9.70;85.90
6948;DHT22;3513;47.664;9.162;2022-12-29T08:29:18;9.70;85.80
6948;DHT22;3513;47.664;9.162;2022-12-29T08:31:44;9.70;85.80
6948;DHT22;3513;47.664;9.162;2022-12-29T08:34:10;9.70;86.00
6948;DHT22;3513;47.664;9.162;2022-12-29T08:36:36;9.70;86.00
6948;DHT22;3513;47.664;9.162;2022-12-29T08:39:02;9.80;85.50
6948;DHT22;3513;47.664;9.162;2022-12-29T08:41:27;9.80;85.60
6948;DHT22;3513;47.664;9.162;2022-12-29T08:43:53;10.70;85.10
6948;DHT22;3513;47.664;9.162;2022-12-29T08:46:18;9.90;85.50
6948;DHT22;3513;47.664;9.162;2022-12-29T08:48:45;9.90;85.60
6948;DHT22;3513;47.664;9.162;2022-12-29T08:51:11;9.90;86.00
6948;DHT22;3513;47.664;9.162;2022-12-29T08:53:36;9.90;85.90
6948;DHT22;3513;47.664;9.162;2022-12-29T08:56:02;9.90;85.30
6948;DHT22;3513;47.664;9.162;2022-12-29T08:58:28;10.00;83.70
6948;DHT22;3513;47.664;9.162;2022-12-29T09:00:55;10.00;83.90
6948;DHT22;3513;47.664;9.162;2022-12-29T09:03:22;10.00;84.30
6948;DHT22;3513;47.664;9.162;2022-12-29T09:05:52;10.00;84.70
6948;DHT22;3513;47.664;9.162;2022-12-29T09:08:18;10.10;84.00
6948;DHT22;3513;47.664;9.162;2022-12-29T09:10:45;10.20;83.50
6948;DHT22;3513;47.664;9.162;2022-12-29T09:13:12;10.20;83.50
6948;DHT22;3513;47.664;9.162;2022-12-29T09:15:38;10.30;83.60
6948;DHT22;3513;47.664;9.162;2022-12-29T09:18:04;10.60;82.90
6948;DHT22;3513;47.664;9.162;2022-12-29T09:20:30;10.40;82.90
6948;DHT22;3513;47.664;9.162;2022-12-29T09:22:55;10.50;80.20
6948;DHT22;3513;47.664;9.162;2022-12-29T09:25:21;10.60;81.40
6948;DHT22;3513;47.664;9.162;2022-12-29T09:27:50;10.50;80.70
6948;DHT22;3513;47.664;9.162;2022-12-29T09:30:18;10.70;79.80
6948;DHT22;3513;47.664;9.162;2022-12-29T09:32:44;10.70;80.30
6948;DHT22;3513;47.664;9.162;2022-12-29T09:35:09;10.80;80.20
6948;DHT22;3513;47.664;9.162;2022-12-29T09:37:35;10.80;79.50
6948;DHT22;3513;47.664;9.162;2022-12-29T09:40:01;10.80;79.70
6948;DHT22;3513;47.664;9.162;2022-12-29T09:42:57;11.00;79.60
6948;DHT22;3513;47.664;9.162;2022-12-29T09:45:45;10.90;78.40
6948;DHT22;3513;47.664;9.162;2022-12-29T09:48:27;11.10;78.20
6948;DHT22;3513;47.664;9.162;2022-12-29T09:50:57;11.20;78.20
6948;DHT22;3513;47.664;9.162;2022-12-29T09:53:35;11.20;74.90
6948;DHT22;3513;47.664;9.162;2022-12-29T09:56:02;11.40;76.10
6948;DHT22;3513;47.664;9.162;2022-12-29T10:01:06;11.50;74.50
6948;DHT22;3513;47.664;9.162;2022-12-29T10:04:02;11.50;74.30
6948;DHT22;3513;47.664;9.162;2022-12-29T10:12:43;11.50;74.10
6948;DHT22;3513;47.664;9.162;2022-12-29T10:21:11;11.50;73.30
6948;DHT22;3513;47.664;9.162;2022-12-29T10:23:59;11.60;73.10
6948;DHT22;3513;47.664;9.162;2022-12-29T10:26:36;11.60;72.30
6948;DHT22;3513;47.664;9.162;2022-12-29T10:29:04;11.70;73.30
6948;DHT22;3513;47.664;9.162;2022-12-29T10:31:38;11.70;74.70
6948;DHT22;3513;47.664;9.162;2022-12-29T10:34:21;11.70;74.40
6948;DHT22;3513;47.664;9.162;2022-12-29T10:37:03;11.80;73.40
6948;DHT22;3513;47.664;9.162;2022-12-29T10:39:32;11.80;70.40
6948;DHT22;3513;47.664;9.162;2022-12-29T10:44:31;11.80;70.10
6948;DHT22;3513;47.664;9.162;2022-12-29T10:47:06;11.80;70.10
6948;DHT22;3513;47.664;9.162;2022-12-29T10:49:38;11.80;70.00
6948;DHT22;3513;47.664;9.162;2022-12-29T10:52:05;11.80;70.30
6948;DHT22;3513;47.664;9.162;2022-12-29T10:54:45;11.90;69.80
6948;DHT22;3513;47.664;9.162;2022-12-29T10:57:28;11.90;70.10
6948;DHT22;3513;47.664;9.162;2022-12-29T10:59:57;12.00;69.20
6948;DHT22;3513;47.664;9.162;2022-12-29T11:07:36;12.00;69.90
6948;DHT22;3513;47.664;9.162;2022-12-29T11:10:37;12.10;69.20
6948;DHT22;3513;47.664;9.162;2022-12-29T11:13:18;12.00;69.30
6948;DHT22;3513;47.664;9.162;2022-12-29T11:15:49;12.00;70.00
6948;DHT22;3513;47.664;9.162;2022-12-29T11:18:25;12.00;69.90
6948;DHT22;3513;47.664;9.162;2022-12-29T11:20:56;11.90;70.90
6948;DHT22;3513;47.664;9.162;2022-12-29T11:23:44;11.90;71.70
6948;DHT22;3513;47.664;9.162;2022-12-29T11:26:24;11.90;71.90
6948;DHT22;3513;47.664;9.162;2022-12-29T11:29:21;11.90;72.40
6948;DHT22;3513;47.664;9.162;2022-12-29T11:31:52;11.90;72.10
6948;DHT22;3513;47.664;9.162;2022-12-29T11:34:26;11.90;71.80
6948;DHT22;3513;47.664;9.162;2022-12-29T11:36:54;12.00;72.10
6948;DHT22;3513;47.664;9.162;2022-12-29T11:39:31;12.10;71.40
6948;DHT22;3513;47.664;9.162;2022-12-29T11:41:58;12.00;70.60
6948;DHT22;3513;47.664;9.162;2022-12-29T11:44:24;12.00;71.70
6948;DHT22;3513;47.664;9.162;2022-12-29T11:46:51;12.00;72.90
6948;DHT22;3513;47.664;9.162;2022-12-29T11:49:23;12.00;72.80
6948;DHT22;3513;47.664;9.162;2022-12-29T11:51:51;12.00;73.20
6948;DHT22;3513;47.664;9.162;2022-12-29T11:54:32;12.20;72.50
6948;DHT22;3513;47.664;9.162;2022-12-29T11:57:12;12.00;73.40
6948;DHT22;3513;47.664;9.162;2022-12-29T11:59:48;12.00;74.80
6948;DHT22;3513;47.664;9.162;2022-12-29T12:02:22;12.10;74.50
6948;DHT22;3513;47.664;9.162;2022-12-29T12:04:56;12.00;74.50
6948;DHT22;3513;47.664;9.162;2022-12-29T12:10:56;12.00;73.60
6948;DHT22;3513;47.664;9.162;2022-12-29T12:13:36;11.90;73.70
6948;DHT22;3513;47.664;9.162;2022-12-29T12:16:16;11.90;74.00
6948;DHT22;3513;47.664;9.162;2022-12-29T12:18:47;11.90;74.70
6948;DHT22;3513;47.664;9.162;2022-12-29T12:21:40;11.80;77.00
6948;DHT22;3513;47.664;9.162;2022-12-29T12:24:13;11.80;76.80
6948;DHT22;3513;47.664;9.162;2022-12-29T12:26:58;11.80;78.20
6948;DHT22;3513;47.664;9.162;2022-12-29T12:29:41;11.80;79.80
6948;DHT22;3513;47.664;9.162;2022-12-29T12:32:19;11.80;79.90
6948;DHT22;3513;47.664;9.162;2022-12-29T12:34:48;11.70;78.70
6948;DHT22;3513;47.664;9.162;2022-12-29T12:43:01;11.70;79.70
6948;DHT22;3513;47.664;9.162;2022-12-29T12:53:48;11.70;78.80
6948;DHT22;3513;47.664;9.162;2022-12-29T12:56:37;11.80;79.30
6948;DHT22;3513;47.664;9.162;2022-12-29T12:59:22;11.80;79.10
6948;DHT22;3513;47.664;9.162;2022-12-29T13:02:14;11.80;78.80
6948;DHT22;3513;47.664;9.162;2022-12-29T13:05:09;11.90;78.60
6948;DHT22;3513;47.664;9.162;2022-12-29T13:16:19;11.90;76.40
6948;DHT22;3513;47.664;9.162;2022-12-29T13:19:02;11.90;76.20
6948;DHT22;3513;47.664;9.162;2022-12-29T13:27:26;11.90;75.70
6948;DHT22;3513;47.664;9.162;2022-12-29T13:35:38;12.00;76.30
6948;DHT22;3513;47.664;9.162;2022-12-29T13:38:21;12.00;75.40
6948;DHT22;3513;47.664;9.162;2022-12-29T13:40:55;12.00;75.80
6948;DHT22;3513;47.664;9.162;2022-12-29T13:43:22;12.10;76.20
6948;DHT22;3513;47.664;9.162;2022-12-29T13:45:57;12.00;77.60
6948;DHT22;3513;47.664;9.162;2022-12-29T13:48:40;12.00;76.30
6948;DHT22;3513;47.664;9.162;2022-12-29T13:51:09;12.00;76.50
6948;DHT22;3513;47.664;9.162;2022-12-29T13:56:24;11.90;77.60
6948;DHT22;3513;47.664;9.162;2022-12-29T13:58:58;11.80;78.10
6948;DHT22;3513;47.664;9.162;2022-12-29T14:01:29;11.70;78.50
6948;DHT22;3513;47.664;9.162;2022-12-29T14:03:57;11.70;79.30
6948;DHT22;3513;47.664;9.162;2022-12-29T14:06:32;11.60;79.90
6948;DHT22;3513;47.664;9.162;2022-12-29T14:09:03;11.60;80.80
6948;DHT22;3513;47.664;9.162;2022-12-29T14:11:39;11.50;82.70
6948;DHT22;3513;47.664;9.162;2022-12-29T14:14:28;11.50;83.50
6948;DHT22;3513;47.664;9.162;2022-12-29T14:17:09;11.40;84.40
6948;DHT22;3513;47.664;9.162;2022-12-29T14:19:41;11.40;86.20
6948;DHT22;3513;47.664;9.162;2022-12-29T14:22:10;11.30;85.60
6948;DHT22;3513;47.664;9.162;2022-12-29T14:24:43;11.40;87.40
6948;DHT22;3513;47.664;9.162;2022-12-29T14:34:56;11.40;87.30
6948;DHT22;3513;47.664;9.162;2022-12-29T14:37:28;11.40;87.90
6948;DHT22;3513;47.664;9.162;2022-12-29T14:40:18;11.40;89.10
6948;DHT22;3513;47.664;9.162;2022-12-29T14:42:47;11.40;88.10
6948;DHT22;3513;47.664;9.162;2022-12-29T14:47:50;11.40;88.20
6948;DHT22;3513;47.664;9.162;2022-12-29T14:50:42;12.20;88.90
6948;DHT22;3513;47.664;9.162;2022-12-29T14:53:41;11.50;89.00
6948;DHT22;3513;47.664;9.162;2022-12-29T14:56:09;11.50;89.00
6948;DHT22;3513;47.664;9.162;2022-12-29T15:01:20;11.50;89.30
6948;DHT22;3513;47.664;9.162;2022-12-29T15:03:54;11.40;89.00
6948;DHT22;3513;47.664;9.162;2022-12-29T15:06:24;11.50;88.20
6948;DHT22;3513;47.664;9.162;2022-12-29T15:09:08;11.50;88.50
6948;DHT22;3513;47.664;9.162;2022-12-29T15:14:01;11.40;88.90
6948;DHT22;3513;47.664;9.162;2022-12-29T15:16:34;11.40;88.60
6948;DHT22;3513;47.664;9.162;2022-12-29T15:19:03;11.50;88.30
6948;DHT22;3513;47.664;9.162;2022-12-29T15:21:33;11.50;88.00
6948;DHT22;3513;47.664;9.162;2022-12-29T15:23:59;11.40;88.30
6948;DHT22;3513;47.664;9.162;2022-12-29T15:26:39;11.50;88.50
6948;DHT22;3513;47.664;9.162;2022-12-29T15:29:25;11.40;89.00
6948;DHT22;3513;47.664;9.162;2022-12-29T15:31:51;11.70;88.90
6948;DHT22;3513;47.664;9.162;2022-12-29T15:34:20;11.40;88.90
6948;DHT22;3513;47.664;9.162;2022-12-29T15:36:49;11.30;89.00
6948;DHT22;3513;47.664;9.162;2022-12-29T15:39:34;11.30;89.20
6948;DHT22;3513;47.664;9.162;2022-12-29T15:42:09;11.30;89.20
6948;DHT22;3513;47.664;9.162;2022-12-29T15:44:43;11.30;89.50
6948;DHT22;3513;47.664;9.162;2022-12-29T15:47:16;11.30;89.90
6948;DHT22;3513;47.664;9.162;2022-12-29T15:49:44;11.30;90.00
6948;DHT22;3513;47.664;9.162;2022-12-29T15:52:10;11.20;89.90
6948;DHT22;3513;47.664;9.162;2022-12-29T15:54:37;11.40;90.30
6948;DHT22;3513;47.664;9.162;2022-12-29T15:57:03;11.10;90.30
6948;DHT22;3513;47.664;9.162;2022-12-29T15:59:33;11.10;90.40
6948;DHT22;3513;47.664;9.162;2022-12-29T16:02:01;11.10;90.20
6948;DHT22;3513;47.664;9.162;2022-12-29T16:04:30;11.10;90.10
6948;DHT22;3513;47.664;9.162;2022-12-29T16:07:19;11.20;89.70
6948;DHT22;3513;47.664;9.162;2022-12-29T16:09:53;11.10;90.10
6948;DHT22;3513;47.664;9.162;2022-12-29T16:12:22;11.00;90.40
6948;DHT22;3513;47.664;9.162;2022-12-29T16:14:56;11.00;90.50
6948;DHT22;3513;47.664;9.162;2022-12-29T16:17:25;11.00;91.40
6948;DHT22;3513;47.664;9.162;2022-12-29T16:19:57;10.90;92.40
6948;DHT22;3513;47.664;9.162;2022-12-29T16:22:36;10.80;93.50
6948;DHT22;3513;47.664;9.162;2022-12-29T16:27:50;10.60;95.10
6948;DHT22;3513;47.664;9.162;2022-12-29T16:30:26;10.50;95.70
6948;DHT22;3513;47.664;9.162;2022-12-29T16:32:55;11.10;96.50
6948;DHT22;3513;47.664;9.162;2022-12-29T16:38:14;10.50;96.20
6948;DHT22;3513;47.664;9.162;2022-12-29T16:40:56;10.50;96.30
6948;DHT22;3513;47.664;9.162;2022-12-29T16:48:23;10.50;96.50
6948;DHT22;3513;47.664;9.162;2022-12-29T16:50:51;10.50;96.40
6948;DHT22;3513;47.664;9.162;2022-12-29T16:53:24;10.50;96.50
6948;DHT22;3513;47.664;9.162;2022-12-29T16:55:52;10.50;96.70
6948;DHT22;3513;47.664;9.162;2022-12-29T16:58:22;10.40;96.90
6948;DHT22;3513;47.664;9.162;2022-12-29T17:00:48;10.40;97.00
6948;DHT22;3513;47.664;9.162;2022-12-29T17:03:14;10.40;97.30
6948;DHT22;3513;47.664;9.162;2022-12-29T17:05:40;10.30;97.40
6948;DHT22;3513;47.664;9.162;2022-12-29T17:08:19;10.30;97.60
6948;DHT22;3513;47.664;9.162;2022-12-29T17:10:55;10.20;97.80
6948;DHT22;3513;47.664;9.162;2022-12-29T17:13:40;10.20;98.10
6948;DHT22;3513;47.664;9.162;2022-12-29T17:16:07;10.10;98.20
6948;DHT22;3513;47.664;9.162;2022-12-29T17:18:35;10.10;98.40
6948;DHT22;3513;47.664;9.162;2022-12-29T17:21:01;10.10;98.60
6948;DHT22;3513;47.664;9.162;2022-12-29T17:23:27;10.10;98.70
6948;DHT22;3513;47.664;9.162;2022-12-29T17:25:54;10.10;98.70
6948;DHT22;3513;47.664;9.162;2022-12-29T17:28:29;10.20;98.70
6948;DHT22;3513;47.664;9.162;2022-12-29T17:31:05;10.20;99.20
6948;DHT22;3513;47.664;9.162;2022-12-29T17:33:35;10.10;99.60
6948;DHT22;3513;47.664;9.162;2022-12-29T17:36:01;10.20;99.90
6948;DHT22;3513;47.664;9.162;2022-12-29T17:38:29;10.10;99.90
6948;DHT22;3513;47.664;9.162;2022-12-29T17:40:56;10.10;99.90
6948;DHT22;3513;47.664;9.162;2022-12-29T17:43:22;10.00;99.90
6948;DHT22;3513;47.664;9.162;2022-12-29T17:45:56;9.90;99.90
6948;DHT22;3513;47.664;9.162;2022-12-29T17:48:22;9.50;99.90
6948;DHT22;3513;47.664;9.162;2022-12-29T17:50:50;9.70;99.90
6948;DHT22;3513;47.664;9.162;2022-12-29T17:53:24;9.60;99.90
6948;DHT22;3513;47.664;9.162;2022-12-29T17:55:51;9.50;99.90
6948;DHT22;3513;47.664;9.162;2022-12-29T17:58:21;9.50;99.90
6948;DHT22;3513;47.664;9.162;2022-12-29T18:00:50;9.40;99.90
6948;DHT22;3513;47.664;9.162;2022-12-29T18:03:22;9.30;99.90
6948;DHT22;3513;47.664;9.162;2022-12-29T18:05:49;9.20;99.90
6948;DHT22;3513;47.664;9.162;2022-12-29T18:08:14;9.10;99.90
6948;DHT22;3513;47.664;9.162;2022-12-29T18:10:40;9.20;99.90
6948;DHT22;3513;47.664;9.162;2022-12-29T18:13:06;9.10;99.90
6948;DHT22;3513;47.664;9.162;2022-12-29T18:15:33;9.30;99.90
6948;DHT22;3513;47.664;9.162;2022-12-29T18:18:13;9.10;99.90
6948;DHT22;3513;47.664;9.162;2022-12-29T18:20:39;9.20;99.90
6948;DHT22;3513;47.664;9.162;2022-12-29T18:23:06;9.10;99.90
6948;DHT22;3513;47.664;9.162;2022-12-29T18:25:44;10.20;99.90
6948;DHT22;3513;47.664;9.162;2022-12-29T18:28:11;9.20;99.90